createdAt,value
2017-10-02T00:00:32.315Z,4.46
2017-10-02T00:03:08.235Z,4.10
2017-10-02T00:05:36.519Z,4.14
2017-10-02T00:08:12.439Z,4.58
2017-10-02T00:10:40.757Z,4.34
2017-10-02T00:13:09.011Z,4.48
2017-10-02T00:15:37.272Z,4.38
2017-10-02T00:18:11.704Z,4.10
2017-10-02T00:20:39.966Z,4.06
2017-10-02T00:23:18.951Z,4.74
2017-10-02T00:25:47.207Z,4.36
2017-10-02T00:28:35.272Z,4.76
2017-10-02T00:31:03.552Z,4.32
2017-10-02T00:33:48.710Z,3.98
2017-10-02T00:36:16.975Z,4.38
2017-10-02T00:38:45.235Z,5.18
2017-10-02T00:41:13.545Z,5.02
2017-10-02T00:43:41.847Z,4.52
2017-10-02T00:46:10.136Z,4.40
2017-10-02T00:48:55.295Z,4.44
2017-10-02T00:51:23.587Z,5.18
2017-10-02T00:53:58.903Z,4.26
2017-10-02T00:56:27.198Z,4.34
2017-10-02T00:59:05.824Z,3.66
2017-10-02T01:01:35.218Z,4.36
2017-10-02T01:04:08.308Z,3.62
2017-10-02T01:06:36.607Z,3.60
2017-10-02T01:12:07.645Z,3.62
2017-10-02T01:14:35.913Z,4.08
2017-10-02T01:17:23.753Z,3.40
2017-10-02T01:19:52.022Z,3.84
2017-10-02T01:22:33.386Z,5.24
2017-10-02T01:25:04.006Z,3.76
2017-10-02T01:27:48.743Z,4.02
2017-10-02T01:30:16.995Z,4.36
2017-10-02T01:35:37.948Z,3.90
2017-10-02T01:38:06.208Z,3.72
2017-10-02T01:43:29.627Z,3.64
2017-10-02T01:45:57.910Z,4.36
2017-10-02T01:48:29.687Z,4.10
2017-10-02T01:50:57.978Z,4.10
2017-10-02T01:53:26.239Z,4.22
2017-10-02T01:55:54.551Z,4.90
2017-10-02T01:58:22.802Z,4.30
2017-10-02T02:00:54.606Z,4.60
2017-10-02T02:03:22.944Z,4.74
2017-10-02T02:05:53.154Z,3.78
2017-10-02T02:08:21.451Z,4.10
2017-10-02T02:19:44.347Z,4.94
2017-10-02T02:22:12.611Z,3.94
2017-10-02T02:24:51.540Z,3.60
2017-10-02T02:27:19.811Z,4.52
2017-10-02T02:30:09.701Z,4.22
2017-10-02T02:32:37.954Z,4.80
2017-10-02T02:38:12.662Z,3.96
2017-10-02T02:40:40.911Z,3.60
2017-10-02T02:43:09.203Z,4.28
2017-10-02T02:45:37.459Z,4.08
2017-10-02T02:48:12.205Z,4.40
2017-10-02T02:50:40.525Z,4.10
2017-10-02T02:53:25.953Z,3.76
2017-10-02T02:55:54.247Z,3.30
2017-10-02T02:58:22.543Z,3.94
2017-10-02T03:00:50.806Z,3.92
2017-10-02T03:03:29.685Z,4.12
2017-10-02T03:05:57.952Z,3.50
2017-10-02T03:08:46.030Z,4.16
2017-10-02T03:11:14.335Z,4.94
2017-10-02T03:13:46.031Z,4.36
2017-10-02T03:16:14.312Z,4.70
2017-10-02T03:19:05.939Z,4.28
2017-10-02T03:21:35.032Z,4.48
2017-10-02T03:24:06.954Z,4.28
2017-10-02T03:26:35.208Z,4.08
2017-10-02T03:29:05.515Z,3.94
2017-10-02T03:31:35.088Z,4.00
2017-10-02T03:34:22.727Z,3.90
2017-10-02T03:36:51.023Z,3.94
2017-10-02T03:42:18.140Z,4.24
2017-10-02T03:44:46.403Z,3.96
2017-10-02T03:47:14.655Z,4.06
2017-10-02T03:49:42.957Z,3.90
2017-10-02T03:58:02.137Z,4.14
2017-10-02T04:00:31.551Z,4.86
2017-10-02T04:03:00.614Z,4.02
2017-10-02T04:05:28.903Z,4.08
2017-10-02T04:08:11.145Z,4.26
2017-10-02T04:10:39.407Z,4.28
2017-10-02T04:13:22.295Z,4.46
2017-10-02T04:15:50.565Z,4.78
2017-10-02T04:18:18.827Z,4.72
2017-10-02T04:23:44.762Z,5.20
2017-10-02T04:26:13.069Z,4.08
2017-10-02T04:28:58.489Z,3.90
2017-10-02T04:31:26.801Z,4.20
2017-10-02T04:34:06.826Z,3.68
2017-10-02T04:36:35.544Z,4.02
2017-10-02T04:39:20.598Z,4.80
2017-10-02T04:41:48.890Z,3.50
2017-10-02T04:44:17.176Z,3.98
2017-10-02T04:46:51.712Z,3.78
2017-10-02T04:49:19.962Z,3.78
2017-10-02T04:51:58.659Z,4.32
2017-10-02T04:54:26.915Z,3.28
2017-10-02T04:56:56.187Z,3.58
2017-10-02T04:59:24.502Z,3.62
2017-10-02T05:02:09.425Z,3.38
2017-10-02T05:04:37.720Z,3.62
2017-10-02T05:07:05.978Z,3.54
2017-10-02T05:09:34.746Z,3.52
2017-10-02T05:12:04.604Z,3.62
2017-10-02T05:14:34.004Z,3.82
2017-10-02T05:17:21.305Z,2.96
2017-10-02T05:19:49.559Z,3.90
2017-10-02T05:22:17.055Z,3.28
2017-10-02T05:24:45.343Z,3.52
2017-10-02T05:27:27.079Z,3.28
2017-10-02T05:29:55.387Z,3.90
2017-10-02T05:32:33.562Z,3.20
2017-10-02T05:35:04.298Z,3.64
2017-10-02T05:37:51.867Z,3.24
2017-10-02T05:40:20.165Z,3.28
2017-10-02T05:42:50.867Z,3.54
2017-10-02T05:45:19.169Z,2.60
2017-10-02T05:47:47.432Z,3.56
2017-10-02T05:50:15.736Z,3.32
2017-10-02T05:52:44.005Z,3.00
2017-10-02T05:55:12.277Z,3.20
2017-10-02T05:57:40.593Z,3.68
2017-10-02T06:03:05.306Z,3.12
2017-10-02T06:05:34.492Z,2.96
2017-10-02T06:08:06.207Z,3.54
2017-10-02T06:10:35.305Z,2.64
2017-10-02T06:13:04.524Z,3.10
2017-10-02T06:15:32.831Z,3.50
2017-10-02T06:18:20.107Z,3.76
2017-10-02T06:20:48.413Z,3.00
2017-10-02T06:23:18.619Z,3.22
2017-10-02T06:25:46.922Z,3.80
2017-10-02T06:28:16.155Z,3.36
2017-10-02T06:30:44.483Z,3.54
2017-10-02T06:33:12.776Z,3.58
2017-10-02T06:35:42.046Z,3.68
2017-10-02T06:38:10.366Z,3.64
2017-10-02T06:40:40.692Z,4.82
2017-10-02T06:43:09.001Z,3.30
2017-10-02T06:45:44.724Z,3.62
2017-10-02T06:48:13.042Z,3.38
2017-10-02T06:50:42.256Z,4.80
2017-10-02T06:53:10.595Z,3.42
2017-10-02T06:58:52.802Z,4.20
2017-10-02T07:01:21.110Z,5.00
2017-10-02T07:03:52.595Z,3.48
2017-10-02T07:06:20.904Z,3.86
2017-10-02T07:08:49.164Z,3.60
2017-10-02T07:11:17.422Z,4.46
2017-10-02T07:13:49.862Z,4.44
2017-10-02T07:16:18.142Z,4.32
2017-10-02T07:18:46.414Z,4.16
2017-10-02T07:21:14.696Z,4.60
2017-10-02T07:23:48.804Z,3.62
2017-10-02T07:26:17.093Z,4.28
2017-10-02T07:28:45.362Z,4.10
2017-10-02T07:31:13.642Z,4.72
2017-10-02T07:33:41.957Z,5.76
2017-10-02T07:36:10.206Z,3.98
2017-10-02T07:38:38.462Z,4.32
2017-10-02T07:41:06.752Z,4.18
2017-10-02T07:43:35.011Z,3.82
2017-10-02T07:46:03.162Z,3.74
2017-10-02T07:48:33.308Z,4.42
2017-10-02T07:51:04.013Z,3.84
2017-10-02T07:53:33.874Z,3.96
2017-10-02T07:56:02.174Z,4.20
2017-10-02T07:58:31.515Z,4.48
2017-10-02T08:00:59.769Z,3.90
2017-10-02T08:03:28.032Z,4.40
2017-10-02T08:05:56.292Z,4.30
2017-10-02T08:08:24.589Z,4.48
2017-10-02T08:10:52.887Z,4.22
2017-10-02T08:13:21.138Z,4.34
2017-10-02T08:15:49.403Z,5.92
2017-10-02T08:18:18.129Z,6.30
2017-10-02T08:20:46.384Z,5.32
2017-10-02T08:23:14.667Z,5.30
2017-10-02T08:25:42.977Z,5.00
2017-10-02T08:28:11.232Z,5.64
2017-10-02T08:30:39.487Z,4.48
2017-10-02T08:33:07.776Z,5.52
2017-10-02T08:35:46.531Z,6.18
2017-10-02T08:38:14.835Z,5.60
2017-10-02T08:40:42.334Z,5.58
2017-10-02T08:43:10.666Z,5.32
2017-10-02T08:45:38.938Z,5.74
2017-10-02T08:48:07.210Z,6.04
2017-10-02T08:50:39.367Z,5.50
2017-10-02T08:53:07.643Z,5.42
2017-10-02T08:55:35.931Z,4.82
2017-10-02T08:58:05.298Z,6.12
2017-10-02T09:00:33.551Z,5.62
2017-10-02T09:03:04.187Z,5.56
2017-10-02T09:05:33.158Z,5.70
2017-10-02T09:08:03.305Z,5.40
2017-10-02T09:10:41.567Z,5.30
2017-10-02T09:13:09.830Z,5.38
2017-10-02T09:15:38.119Z,5.68
2017-10-02T09:18:29.771Z,5.36
2017-10-02T09:20:58.082Z,6.82
2017-10-02T09:23:26.340Z,5.30
2017-10-02T09:25:54.603Z,4.98
2017-10-02T09:28:22.907Z,4.82
2017-10-02T09:30:51.204Z,6.20
2017-10-02T09:33:19.459Z,4.92
2017-10-02T09:35:47.754Z,5.74
2017-10-02T09:41:08.548Z,4.90
2017-10-02T09:43:36.858Z,5.08
2017-10-02T09:46:28.404Z,6.10
2017-10-02T09:48:56.697Z,5.76
2017-10-02T09:51:31.306Z,6.48
2017-10-02T09:53:59.559Z,6.04
2017-10-02T09:56:38.481Z,5.94
2017-10-02T09:59:06.727Z,5.16
2017-10-02T10:01:35.002Z,5.80
2017-10-02T10:04:04.043Z,5.98
2017-10-02T10:06:32.308Z,5.62
2017-10-02T10:09:01.557Z,5.96
2017-10-02T10:11:29.862Z,6.18
2017-10-02T10:13:58.119Z,4.52
2017-10-02T10:16:26.669Z,6.86
2017-10-02T10:18:54.946Z,7.56
2017-10-02T10:21:31.338Z,5.64
2017-10-02T10:23:59.596Z,6.00
2017-10-02T10:26:27.847Z,6.48
2017-10-02T10:28:56.138Z,6.64
2017-10-02T10:31:27.699Z,6.44
2017-10-02T10:33:55.987Z,6.12
2017-10-02T10:36:33.412Z,6.68
2017-10-02T10:39:03.166Z,6.50
2017-10-02T10:41:35.300Z,7.74
2017-10-02T10:44:04.643Z,5.58
2017-10-02T10:46:33.911Z,6.08
2017-10-02T10:49:04.233Z,6.82
2017-10-02T10:51:39.061Z,6.26
2017-10-02T10:54:07.337Z,6.40
2017-10-02T10:56:36.590Z,7.08
2017-10-02T10:59:04.904Z,6.50
2017-10-02T11:01:45.339Z,6.80
2017-10-02T11:04:13.623Z,6.22
2017-10-02T11:06:43.851Z,6.22
2017-10-02T11:09:12.115Z,6.96
2017-10-02T11:11:40.416Z,7.04
2017-10-02T11:14:08.689Z,7.62
2017-10-02T11:16:57.048Z,7.22
2017-10-02T11:19:25.312Z,8.64
2017-10-02T11:30:46.646Z,8.60
2017-10-02T11:33:14.921Z,6.96
2017-10-02T11:35:59.740Z,8.12
2017-10-02T11:38:27.991Z,7.42
2017-10-02T11:41:06.536Z,8.00
2017-10-02T11:43:34.782Z,7.54
2017-10-02T11:46:04.211Z,8.56
2017-10-02T11:48:33.134Z,8.02
2017-10-02T11:51:02.694Z,9.60
2017-10-02T11:53:33.657Z,7.00
2017-10-02T11:56:04.123Z,7.98
2017-10-02T11:58:48.832Z,7.98
2017-10-02T12:01:17.131Z,7.36
2017-10-02T12:04:04.046Z,6.96
2017-10-02T12:06:32.338Z,7.74
2017-10-02T12:09:00.700Z,6.84
2017-10-02T12:11:35.901Z,5.92
2017-10-02T12:14:04.879Z,7.48
2017-10-02T12:16:33.807Z,7.56
2017-10-02T12:21:55.423Z,8.14
2017-10-02T12:24:23.729Z,6.18
2017-10-02T12:26:51.990Z,7.40
2017-10-02T12:29:20.289Z,7.52
2017-10-02T12:34:43.823Z,8.26
2017-10-02T12:37:12.111Z,8.40
2017-10-02T12:39:46.889Z,6.80
2017-10-02T12:42:15.152Z,8.04
2017-10-02T12:44:51.999Z,8.46
2017-10-02T12:47:20.268Z,7.34
2017-10-02T12:50:11.377Z,7.76
2017-10-02T12:52:39.663Z,7.90
2017-10-02T12:55:07.956Z,7.30
2017-10-02T12:57:36.222Z,6.94
2017-10-02T13:00:10.326Z,6.86
2017-10-02T13:02:38.620Z,6.06
2017-10-02T13:05:06.906Z,7.72
2017-10-02T13:07:35.164Z,6.42
2017-10-02T13:10:04.383Z,7.90
2017-10-02T13:12:33.520Z,8.16
2017-10-02T13:15:04.105Z,7.48
2017-10-02T13:17:32.373Z,10.18
2017-10-02T13:20:00.771Z,7.82
2017-10-02T13:22:29.067Z,5.90
2017-10-02T13:24:57.335Z,7.12
2017-10-02T13:27:25.629Z,8.12
2017-10-02T13:29:53.929Z,8.22
2017-10-02T13:32:22.200Z,7.26
2017-10-02T13:34:50.508Z,7.18
2017-10-02T13:37:18.810Z,7.50
2017-10-02T13:39:47.074Z,6.90
2017-10-02T13:42:15.349Z,6.76
2017-10-02T13:44:43.641Z,9.60
2017-10-02T13:47:11.903Z,8.78
2017-10-02T13:49:40.195Z,8.35
2017-10-02T13:52:08.483Z,8.14
2017-10-02T13:54:42.498Z,8.04
2017-10-02T13:57:10.830Z,8.32
2017-10-02T13:59:39.112Z,7.40
2017-10-02T14:02:07.393Z,7.80
2017-10-02T14:04:56.059Z,6.68
2017-10-02T14:07:24.322Z,6.86
2017-10-02T14:10:03.773Z,6.36
2017-10-02T14:12:34.751Z,6.44
2017-10-02T14:15:04.131Z,5.46
2017-10-02T14:17:33.959Z,7.40
2017-10-02T14:22:57.607Z,7.40
2017-10-02T14:25:25.897Z,6.44
2017-10-02T14:27:57.795Z,7.86
2017-10-02T14:30:26.104Z,7.64
2017-10-02T14:33:04.003Z,7.02
2017-10-02T14:35:34.226Z,7.94
2017-10-02T14:38:26.094Z,6.20
2017-10-02T14:40:54.387Z,5.76
2017-10-02T14:43:34.119Z,8.24
2017-10-02T14:46:02.408Z,7.26
2017-10-02T14:51:40.878Z,7.10
2017-10-02T14:54:09.183Z,7.52
2017-10-02T14:56:37.448Z,7.80
2017-10-02T14:59:05.714Z,7.18
2017-10-02T15:01:38.707Z,7.68
2017-10-02T15:04:06.981Z,6.52
2017-10-02T15:06:35.256Z,6.92
2017-10-02T15:09:06.464Z,5.48
2017-10-02T15:11:34.720Z,6.98
2017-10-02T15:14:10.359Z,6.22
2017-10-02T15:16:38.620Z,8.00
2017-10-02T15:19:27.700Z,5.44
2017-10-02T15:21:55.959Z,6.52
2017-10-02T15:24:32.328Z,6.38
2017-10-02T15:27:01.211Z,6.86
2017-10-02T15:29:42.187Z,10.94
2017-10-02T15:32:10.462Z,6.78
2017-10-02T15:34:48.627Z,6.84
2017-10-02T15:37:16.896Z,6.02
2017-10-02T15:39:55.801Z,6.40
2017-10-02T15:42:24.058Z,6.38
2017-10-02T15:45:08.730Z,5.78
2017-10-02T15:47:36.995Z,5.48
2017-10-02T15:50:21.830Z,7.16
2017-10-02T15:52:50.087Z,7.54
2017-10-02T15:55:19.317Z,6.08
2017-10-02T15:57:47.576Z,5.82
2017-10-02T16:00:15.863Z,6.98
2017-10-02T16:03:01.971Z,7.80
2017-10-02T16:05:30.759Z,7.22
2017-10-02T16:10:54.109Z,7.06
2017-10-02T16:13:22.406Z,6.36
2017-10-02T16:15:55.086Z,6.60
2017-10-02T16:18:23.398Z,7.02
2017-10-02T16:20:51.662Z,6.54
2017-10-02T16:23:19.919Z,6.48
2017-10-02T16:25:48.208Z,7.30
2017-10-02T16:28:16.466Z,7.26
2017-10-02T16:30:44.780Z,6.48
2017-10-02T16:33:13.043Z,8.62
2017-10-02T16:35:41.319Z,6.50
2017-10-02T16:38:09.613Z,7.22
2017-10-02T16:40:37.881Z,6.12
2017-10-02T16:43:06.154Z,6.74
2017-10-02T16:45:35.704Z,6.18
2017-10-02T16:48:05.172Z,7.92
2017-10-02T16:50:34.359Z,8.36
2017-10-02T16:53:03.297Z,7.74
2017-10-02T16:55:33.360Z,6.70
2017-10-02T16:58:14.532Z,7.76
2017-10-02T17:00:42.960Z,8.32
2017-10-02T17:03:13.266Z,8.68
2017-10-02T17:05:41.540Z,7.42
2017-10-02T17:08:09.849Z,7.68
2017-10-02T17:10:38.136Z,8.30
2017-10-02T17:13:29.326Z,9.52
2017-10-02T17:15:57.605Z,10.38
2017-10-02T17:18:25.937Z,8.70
2017-10-02T17:20:54.203Z,9.30
2017-10-02T17:23:34.100Z,8.32
2017-10-02T17:26:02.785Z,8.94
2017-10-02T17:28:41.449Z,7.96
2017-10-02T17:31:09.711Z,9.00
2017-10-02T17:33:38.025Z,7.56
2017-10-02T17:36:06.304Z,8.42
2017-10-02T17:38:34.771Z,8.96
2017-10-02T17:41:03.825Z,8.98
2017-10-02T17:43:34.300Z,7.92
2017-10-02T17:46:09.619Z,10.32
2017-10-02T17:48:37.934Z,7.82
2017-10-02T17:54:05.151Z,7.96
2017-10-02T17:56:34.259Z,8.50
2017-10-02T17:59:04.127Z,10.36
2017-10-02T18:01:32.390Z,9.08
2017-10-02T18:04:02.300Z,9.12
2017-10-02T18:06:31.542Z,7.58
2017-10-02T18:08:59.876Z,9.48
2017-10-02T18:11:28.153Z,9.88
2017-10-02T18:13:56.416Z,8.54
2017-10-02T18:16:24.707Z,10.18
2017-10-02T18:18:53.026Z,8.88
2017-10-02T18:21:44.591Z,10.16
2017-10-02T18:24:12.895Z,8.86
2017-10-02T18:26:41.170Z,9.10
2017-10-02T18:29:09.442Z,7.56
2017-10-02T18:31:42.848Z,7.70
2017-10-02T18:34:11.106Z,11.54
2017-10-02T18:36:41.413Z,7.32
2017-10-02T18:39:09.662Z,8.08
2017-10-02T18:41:52.590Z,8.60
2017-10-02T18:44:20.888Z,9.24
2017-10-02T18:47:07.608Z,7.78
2017-10-02T18:49:35.923Z,8.22
2017-10-02T18:52:05.036Z,8.02
2017-10-02T18:54:37.901Z,8.14
2017-10-02T18:57:06.171Z,7.84
2017-10-02T18:59:57.937Z,7.10
2017-10-02T19:02:26.255Z,8.48
2017-10-02T19:04:58.828Z,9.50
2017-10-02T19:07:27.118Z,6.80
2017-10-02T19:09:59.992Z,8.32
2017-10-02T19:12:28.265Z,8.12
2017-10-02T19:14:56.530Z,7.46
2017-10-02T19:17:32.641Z,9.08
2017-10-02T19:20:01.896Z,8.52
2017-10-02T19:22:31.345Z,11.92
2017-10-02T19:24:59.631Z,7.72
2017-10-02T19:27:27.889Z,8.70
2017-10-02T19:30:01.421Z,8.26
2017-10-02T19:32:32.195Z,7.44
2017-10-02T19:35:00.937Z,7.30
2017-10-02T19:37:29.202Z,8.84
2017-10-02T19:39:57.515Z,8.76
2017-10-02T19:42:25.790Z,8.30
2017-10-02T19:44:54.079Z,9.10
2017-10-02T19:47:22.377Z,8.12
2017-10-02T19:49:51.652Z,8.08
2017-10-02T19:52:19.928Z,8.14
2017-10-02T19:54:59.432Z,8.30
2017-10-02T19:57:27.694Z,9.02
2017-10-02T19:59:55.989Z,9.90
2017-10-02T20:02:24.299Z,8.96
2017-10-02T20:05:03.144Z,7.50
2017-10-02T20:07:31.434Z,7.58
2017-10-02T20:09:59.732Z,8.58
2017-10-02T20:12:34.313Z,8.82
2017-10-02T20:15:03.371Z,9.12
2017-10-02T20:17:38.362Z,8.14
2017-10-02T20:20:06.663Z,7.76
2017-10-02T20:22:49.119Z,9.52
2017-10-02T20:25:17.431Z,6.30
2017-10-02T20:27:45.685Z,6.50
2017-10-02T20:30:13.949Z,8.10
2017-10-02T20:32:42.256Z,8.62
2017-10-02T20:35:23.851Z,8.20
2017-10-02T20:37:52.154Z,9.40
2017-10-02T20:40:20.423Z,9.02
2017-10-02T20:42:48.686Z,7.80
2017-10-02T20:45:26.644Z,7.90
2017-10-02T20:47:54.903Z,8.36
2017-10-02T20:50:29.941Z,7.16
2017-10-02T20:52:58.217Z,7.78
2017-10-02T20:55:40.919Z,8.10
2017-10-02T20:58:09.196Z,6.04
2017-10-02T21:00:37.486Z,7.80
2017-10-02T21:03:05.747Z,8.38
2017-10-02T21:05:35.454Z,6.12
2017-10-02T21:08:03.711Z,7.26
2017-10-02T21:10:39.592Z,7.22
2017-10-02T21:13:07.851Z,8.10
2017-10-02T21:15:39.107Z,8.00
2017-10-02T21:18:07.407Z,7.00
2017-10-02T21:20:34.904Z,7.94
2017-10-02T21:23:04.305Z,7.92
2017-10-02T21:25:33.192Z,8.20
2017-10-02T21:28:04.787Z,7.92
2017-10-02T21:30:34.370Z,8.08
2017-10-02T21:33:12.635Z,7.02
2017-10-02T21:35:40.920Z,8.14
2017-10-02T21:38:14.921Z,7.88
2017-10-02T21:40:43.215Z,8.62
2017-10-02T21:43:11.466Z,8.02
2017-10-02T21:45:39.755Z,6.56
2017-10-02T21:48:08.051Z,8.66
2017-10-02T21:50:36.312Z,8.00
2017-10-02T21:58:54.507Z,8.74
2017-10-02T22:01:22.795Z,7.68
2017-10-02T22:04:08.110Z,8.44
2017-10-02T22:06:36.402Z,9.32
2017-10-02T22:11:57.394Z,7.86
2017-10-02T22:14:25.658Z,7.32
2017-10-02T22:17:08.598Z,8.76
2017-10-02T22:19:36.857Z,8.78
2017-10-02T22:22:05.341Z,7.84
2017-10-02T22:24:33.645Z,7.84
2017-10-02T22:27:12.163Z,8.64
2017-10-02T22:29:40.495Z,8.54
2017-10-02T22:32:09.717Z,9.00
2017-10-02T22:34:37.981Z,8.44
2017-10-02T22:37:18.963Z,9.50
2017-10-02T22:39:47.219Z,8.98
2017-10-02T22:42:31.858Z,10.30
2017-10-02T22:45:00.155Z,8.48
2017-10-02T22:47:37.213Z,9.12
2017-10-02T22:50:05.466Z,8.30
2017-10-02T22:52:37.639Z,8.86
2017-10-02T22:55:05.909Z,8.48
2017-10-02T22:57:42.506Z,8.52
2017-10-02T23:00:10.770Z,7.78
2017-10-02T23:02:39.031Z,7.82
2017-10-02T23:05:07.332Z,7.64
2017-10-02T23:07:34.848Z,9.38
2017-10-02T23:10:04.447Z,8.02
2017-10-02T23:12:32.745Z,8.70
2017-10-02T23:15:01.699Z,8.84
2017-10-02T23:17:29.987Z,8.90
2017-10-02T23:19:58.259Z,8.16
2017-10-02T23:22:43.334Z,8.20
2017-10-02T23:25:11.595Z,8.92
2017-10-02T23:27:41.815Z,9.56
2017-10-02T23:30:10.092Z,9.90
2017-10-02T23:32:57.920Z,10.32
2017-10-02T23:35:26.183Z,8.60
2017-10-02T23:37:59.001Z,9.24
2017-10-02T23:40:27.283Z,12.32
2017-10-02T23:43:16.230Z,10.00
2017-10-02T23:45:44.499Z,11.94
2017-10-02T23:48:12.804Z,8.40
2017-10-02T23:50:41.065Z,8.24
2017-10-02T23:53:19.106Z,8.28
2017-10-02T23:55:47.387Z,6.64
2017-10-02T23:58:16.674Z,8.86
